createdAt,value
2023-01-13T00:01:58.940Z,8.84
2023-01-13T00:04:26.703Z,8.70
2023-01-13T00:06:53.956Z,8.63
2023-01-13T00:09:22.807Z,8.51
2023-01-13T00:11:49.901Z,8.47
2023-01-13T00:14:19.476Z,8.30
2023-01-13T00:16:46.337Z,8.35
2023-01-13T00:19:19.947Z,8.25
2023-01-13T00:21:52.213Z,8.18
2023-01-13T00:24:21.853Z,8.34
2023-01-13T00:26:50.094Z,8.25
2023-01-13T00:29:20.204Z,8.27
2023-01-13T00:31:51.768Z,8.18
2023-01-13T00:34:22.009Z,8.10
2023-01-13T00:36:54.661Z,8.16
2023-01-13T00:39:22.805Z,8.12
2023-01-13T00:42:08.103Z,8.24
2023-01-13T00:44:34.966Z,8.28
2023-01-13T00:47:05.815Z,8.26
2023-01-13T00:49:33.856Z,8.27
2023-01-13T00:52:16.157Z,8.34
2023-01-13T00:54:43.450Z,8.50
2023-01-13T00:57:11.004Z,8.93
2023-01-13T00:59:44.501Z,9.46
2023-01-13T01:02:14.567Z,9.77
2023-01-13T01:04:41.542Z,9.25
2023-01-13T01:07:08.902Z,8.90
2023-01-13T01:09:39.569Z,8.69
2023-01-13T01:12:07.530Z,8.55
2023-01-13T01:14:39.150Z,8.46
2023-01-13T01:17:06.587Z,8.39
2023-01-13T01:19:33.466Z,8.45
2023-01-13T01:22:02.745Z,8.31
2023-01-13T01:24:32.086Z,8.36
2023-01-13T01:26:59.830Z,8.70
2023-01-13T01:29:29.949Z,8.94
2023-01-13T01:31:59.297Z,8.75
2023-01-13T01:34:28.784Z,8.55
2023-01-13T01:36:55.708Z,8.50
2023-01-13T01:39:22.504Z,8.40
2023-01-13T01:42:08.076Z,8.38
2023-01-13T01:44:43.863Z,8.35
2023-01-13T01:47:14.255Z,8.31
2023-01-13T01:49:48.379Z,8.19
2023-01-13T01:52:30.046Z,8.10
2023-01-13T01:55:06.959Z,8.20
2023-01-13T01:57:40.134Z,8.11
2023-01-13T02:00:10.772Z,8.30
2023-01-13T02:02:41.056Z,8.85
2023-01-13T02:05:10.939Z,8.53
2023-01-13T02:07:45.129Z,8.94
2023-01-13T02:10:20.266Z,8.65
2023-01-13T02:12:48.675Z,8.97
2023-01-13T02:15:35.676Z,9.47
2023-01-13T02:18:02.885Z,8.95
2023-01-13T02:20:54.390Z,9.51
2023-01-13T02:24:26.650Z,9.69
2023-01-13T02:27:14.439Z,9.62
2023-01-13T02:30:29.970Z,9.22
2023-01-13T02:33:12.997Z,9.98
2023-01-13T02:35:54.194Z,9.17
2023-01-13T02:38:29.031Z,8.87
2023-01-13T02:41:27.784Z,8.75
2023-01-13T02:44:07.822Z,8.43
2023-01-13T02:46:43.422Z,8.33
2023-01-13T02:49:26.904Z,8.23
2023-01-13T02:51:56.834Z,8.23
2023-01-13T02:54:29.385Z,8.21
2023-01-13T02:56:58.919Z,8.04
2023-01-13T02:59:27.987Z,8.00
2023-01-13T03:01:58.100Z,8.08
2023-01-13T03:04:57.273Z,8.01
2023-01-13T03:07:42.955Z,8.04
2023-01-13T03:10:15.894Z,8.00
2023-01-13T03:13:41.953Z,8.17
2023-01-13T03:16:10.395Z,9.22
2023-01-13T03:19:16.138Z,10.32
2023-01-13T03:22:25.573Z,10.19
2023-01-13T03:25:01.190Z,10.49
2023-01-13T03:27:52.075Z,9.70
2023-01-13T03:30:53.632Z,9.60
2023-01-13T03:33:27.333Z,10.41
2023-01-13T03:36:00.941Z,11.06
2023-01-13T03:38:42.455Z,11.47
2023-01-13T03:41:28.018Z,11.21
2023-01-13T03:44:25.737Z,10.06
2023-01-13T03:47:30.808Z,10.35
2023-01-13T03:50:42.461Z,11.23
2023-01-13T03:53:20.575Z,11.40
2023-01-13T03:56:05.923Z,11.60
2023-01-13T03:58:49.502Z,11.66
2023-01-13T04:01:27.060Z,10.56
2023-01-13T04:04:24.520Z,9.78
2023-01-13T04:07:26.640Z,9.43
2023-01-13T04:09:56.798Z,8.93
2023-01-13T04:12:27.409Z,8.61
2023-01-13T04:14:56.864Z,8.48
2023-01-13T04:17:30.552Z,8.25
2023-01-13T04:19:59.758Z,8.10
2023-01-13T04:22:30.686Z,8.03
2023-01-13T04:25:08.073Z,8.05
2023-01-13T04:27:43.693Z,7.93
2023-01-13T04:30:11.413Z,7.92
2023-01-13T04:32:38.194Z,8.18
2023-01-13T04:35:18.009Z,8.03
2023-01-13T04:37:51.100Z,7.88
2023-01-13T04:40:20.731Z,7.91
2023-01-13T04:42:52.736Z,7.88
2023-01-13T04:45:31.232Z,7.85
2023-01-13T04:47:58.785Z,7.73
2023-01-13T04:50:30.910Z,7.77
2023-01-13T04:53:06.641Z,8.27
2023-01-13T04:55:36.247Z,9.09
2023-01-13T04:58:07.964Z,9.17
2023-01-13T05:00:40.219Z,8.95
2023-01-13T05:03:07.400Z,8.74
2023-01-13T05:05:43.402Z,8.38
2023-01-13T05:08:11.593Z,8.39
2023-01-13T05:10:43.762Z,8.26
2023-01-13T05:13:31.498Z,8.14
2023-01-13T05:16:35.813Z,8.12
2023-01-13T05:19:06.789Z,8.05
2023-01-13T05:21:58.302Z,8.01
2023-01-13T05:24:44.190Z,7.99
2023-01-13T05:27:15.112Z,8.26
2023-01-13T05:50:33.669Z,8.33
2023-01-13T05:56:28.798Z,7.95
2023-01-13T06:22:49.515Z,7.97
2023-01-13T06:36:01.426Z,7.72
2023-01-13T06:38:31.520Z,7.69
2023-01-13T06:41:00.748Z,7.62
2023-01-13T06:50:42.544Z,7.72
2023-01-13T06:53:10.014Z,7.69
2023-01-13T06:55:37.131Z,7.83
2023-01-13T06:58:16.071Z,7.85
2023-01-13T07:08:28.885Z,7.82
2023-01-13T07:18:42.769Z,7.95
2023-01-13T07:21:13.290Z,7.99
2023-01-13T07:29:56.840Z,7.89
2023-01-13T07:32:33.958Z,8.03
2023-01-13T07:35:11.626Z,8.31
2023-01-13T07:37:39.831Z,8.28
2023-01-13T07:43:36.739Z,8.05
2023-01-13T07:46:13.458Z,8.00
2023-01-13T07:48:40.928Z,8.16
2023-01-13T07:51:11.825Z,8.05
2023-01-13T07:53:39.078Z,8.22
2023-01-13T07:56:10.733Z,8.21
2023-01-13T07:58:37.994Z,8.41
2023-01-13T08:01:20.291Z,8.59
2023-01-13T08:07:42.509Z,9.74
2023-01-13T08:10:17.602Z,9.38
2023-01-13T08:13:03.828Z,8.98
2023-01-13T08:19:38.430Z,8.65
2023-01-13T08:22:09.362Z,8.52
2023-01-13T08:24:36.164Z,8.43
2023-01-13T08:27:02.835Z,8.56
2023-01-13T08:33:26.559Z,8.53
2023-01-13T08:36:05.088Z,8.48
2023-01-13T08:38:32.515Z,8.55
2023-01-13T08:51:59.038Z,8.48
2023-01-13T09:12:51.531Z,10.07
2023-01-13T09:22:27.661Z,10.43
2023-01-13T09:24:57.597Z,10.41
2023-01-13T09:27:25.076Z,11.12
2023-01-13T09:29:51.814Z,11.39
2023-01-13T09:36:30.285Z,11.84
2023-01-13T09:38:59.758Z,12.41
2023-01-13T09:42:03.327Z,11.83
2023-01-13T09:44:41.525Z,12.49
2023-01-13T09:47:20.419Z,12.34
2023-01-13T10:00:39.618Z,10.59
2023-01-13T10:03:15.537Z,10.67
2023-01-13T10:06:01.155Z,11.06
2023-01-13T10:08:41.967Z,11.71
2023-01-13T10:14:42.148Z,12.49
2023-01-13T10:17:18.833Z,12.28
2023-01-13T10:33:28.688Z,12.31
2023-01-13T10:36:02.808Z,12.47
2023-01-13T10:38:29.891Z,12.23
2023-01-13T10:41:04.867Z,12.51
2023-01-13T10:43:32.171Z,12.03
2023-01-13T10:46:24.386Z,11.85
2023-01-13T10:52:58.469Z,11.97
2023-01-13T11:26:27.604Z,12.17
2023-01-13T11:29:21.044Z,11.95
2023-01-13T11:35:20.665Z,11.79
2023-01-13T11:38:02.964Z,11.72
2023-01-13T11:44:17.169Z,12.29
2023-01-13T12:04:25.841Z,12.28
2023-01-13T12:07:14.336Z,12.03
2023-01-13T12:10:18.209Z,12.06
2023-01-13T12:12:47.619Z,12.17
2023-01-13T12:15:46.909Z,12.45
2023-01-13T12:18:39.692Z,12.73
2023-01-13T12:21:15.165Z,12.14
2023-01-13T12:24:06.184Z,12.12
2023-01-13T12:26:45.866Z,12.42
2023-01-13T12:29:24.668Z,12.48
2023-01-13T12:31:55.635Z,12.68
2023-01-13T12:34:50.685Z,12.72
2023-01-13T12:37:44.983Z,12.61
2023-01-13T12:40:25.701Z,12.37
2023-01-13T12:43:39.978Z,12.25
2023-01-13T12:46:28.916Z,12.36
2023-01-13T12:49:07.812Z,12.81
2023-01-13T12:51:55.649Z,12.52
2023-01-13T12:54:58.060Z,12.55
2023-01-13T12:57:36.833Z,12.00
2023-01-13T13:00:03.580Z,11.66
2023-01-13T13:02:35.745Z,11.96
2023-01-13T13:05:28.920Z,11.88
2023-01-13T13:08:31.477Z,12.07
2023-01-13T13:11:46.007Z,12.17
2023-01-13T13:14:14.461Z,12.28
2023-01-13T13:16:52.845Z,12.50
2023-01-13T13:19:21.318Z,12.48
2023-01-13T13:22:08.774Z,12.24
2023-01-13T13:24:35.798Z,11.78
2023-01-13T13:27:20.069Z,11.54
2023-01-13T13:29:59.919Z,11.28
2023-01-13T13:32:41.786Z,11.24
2023-01-13T13:35:17.701Z,11.17
2023-01-13T13:38:37.449Z,10.97
2023-01-13T13:41:46.792Z,10.94
2023-01-13T13:44:36.665Z,10.80
2023-01-13T13:47:06.996Z,10.95
2023-01-13T13:49:51.720Z,10.86
2023-01-13T13:52:39.375Z,10.69
2023-01-13T13:55:18.831Z,10.65
2023-01-13T13:57:58.733Z,10.79
2023-01-13T14:00:42.410Z,10.69
2023-01-13T14:03:25.545Z,10.73
2023-01-13T14:06:03.247Z,10.65
2023-01-13T14:08:36.053Z,10.78
2023-01-13T14:11:32.575Z,10.77
2023-01-13T14:14:17.010Z,10.75
2023-01-13T14:16:51.374Z,10.79
2023-01-13T14:19:35.265Z,10.94
2023-01-13T14:22:23.513Z,10.97
2023-01-13T14:24:55.761Z,10.77
2023-01-13T14:27:35.415Z,11.06
2023-01-13T14:30:10.006Z,10.86
2023-01-13T14:32:47.998Z,10.82
2023-01-13T14:35:17.864Z,10.74
2023-01-13T14:37:52.852Z,11.01
2023-01-13T14:40:49.756Z,11.10
2023-01-13T14:43:28.755Z,11.00
2023-01-13T14:46:04.016Z,11.22
2023-01-13T14:48:36.141Z,11.20
2023-01-13T14:51:17.339Z,11.21
2023-01-13T14:53:47.272Z,11.20
2023-01-13T14:56:48.151Z,11.39
2023-01-13T15:00:02.914Z,11.80
2023-01-13T15:02:36.531Z,11.67
2023-01-13T15:05:31.023Z,12.04
2023-01-13T15:08:16.639Z,12.33
2023-01-13T15:11:00.044Z,12.11
2023-01-13T15:13:53.188Z,11.94
2023-01-13T15:16:33.958Z,11.86
2023-01-13T15:19:03.612Z,11.66
2023-01-13T15:21:30.356Z,11.59
2023-01-13T15:23:59.880Z,11.02
2023-01-13T15:26:36.364Z,11.30
2023-01-13T15:29:03.887Z,10.97
2023-01-13T15:31:32.441Z,11.09
2023-01-13T15:34:00.578Z,11.20
2023-01-13T15:36:35.657Z,10.89
2023-01-13T15:39:08.647Z,10.89
2023-01-13T15:41:54.722Z,10.70
2023-01-13T15:44:41.453Z,10.43
2023-01-13T15:47:14.768Z,10.46
2023-01-13T15:49:53.467Z,10.39
2023-01-13T15:52:25.018Z,10.35
2023-01-13T15:55:04.102Z,10.37
2023-01-13T15:57:41.092Z,10.12
2023-01-13T16:00:22.970Z,10.15
2023-01-13T16:02:56.274Z,10.20
2023-01-13T16:05:37.918Z,10.07
2023-01-13T16:08:05.008Z,10.05
2023-01-13T16:10:35.412Z,10.00
2023-01-13T16:13:13.055Z,9.83
2023-01-13T16:15:47.664Z,9.70
2023-01-13T16:18:34.684Z,9.65
2023-01-13T16:21:03.484Z,9.92
2023-01-13T16:23:39.965Z,9.86
2023-01-13T16:26:24.409Z,9.93
2023-01-13T16:28:59.203Z,9.99
2023-01-13T16:31:39.672Z,10.05
2023-01-13T16:34:15.368Z,9.77
2023-01-13T16:36:50.957Z,9.65
2023-01-13T16:39:23.996Z,9.49
2023-01-13T16:41:50.904Z,9.77
2023-01-13T16:44:29.026Z,9.91
2023-01-13T16:47:07.787Z,9.78
2023-01-13T16:49:34.763Z,9.59
2023-01-13T16:52:01.555Z,9.53
2023-01-13T16:54:29.029Z,9.56
2023-01-13T16:57:05.510Z,9.36
2023-01-13T16:59:32.245Z,9.28
2023-01-13T17:01:59.463Z,9.30
2023-01-13T17:04:29.910Z,9.35
2023-01-13T17:07:06.242Z,9.24
2023-01-13T17:09:39.373Z,9.22
2023-01-13T17:12:06.484Z,9.12
2023-01-13T17:14:33.356Z,9.36
2023-01-13T17:17:00.537Z,9.07
2023-01-13T17:19:39.297Z,9.16
2023-01-13T17:22:06.127Z,8.98
2023-01-13T17:24:35.411Z,8.90
2023-01-13T17:27:13.920Z,8.86
2023-01-13T17:29:41.430Z,9.00
2023-01-13T17:32:17.644Z,9.06
2023-01-13T17:34:45.226Z,9.09
2023-01-13T17:37:18.129Z,9.07
2023-01-13T17:39:51.383Z,9.07
2023-01-13T17:42:18.662Z,9.31
2023-01-13T17:44:47.012Z,9.49
2023-01-13T17:47:21.581Z,9.43
2023-01-13T17:49:50.480Z,9.55
2023-01-13T17:52:17.636Z,9.34
2023-01-13T17:54:50.968Z,9.10
2023-01-13T17:57:29.881Z,8.97
2023-01-13T18:00:14.715Z,9.31
2023-01-13T18:02:43.791Z,9.37
2023-01-13T18:05:10.720Z,9.30
2023-01-13T18:07:43.691Z,9.04
2023-01-13T18:10:14.475Z,8.91
2023-01-13T18:12:54.918Z,9.14
2023-01-13T18:15:26.588Z,8.97
2023-01-13T18:17:55.644Z,8.92
2023-01-13T18:20:42.564Z,8.85
2023-01-13T18:23:39.363Z,8.83
2023-01-13T18:26:54.392Z,8.69
2023-01-13T18:29:39.420Z,8.58
2023-01-13T18:32:09.710Z,8.64
2023-01-13T18:34:58.695Z,8.63
2023-01-13T18:40:33.658Z,8.75
2023-01-13T18:43:06.377Z,8.72
2023-01-13T18:45:51.795Z,8.69
2023-01-13T18:48:27.783Z,8.46
2023-01-13T18:51:02.776Z,8.81
2023-01-13T18:53:36.335Z,9.09
2023-01-13T18:56:24.723Z,9.04
2023-01-13T18:59:07.817Z,9.02
2023-01-13T19:01:49.812Z,9.17
2023-01-13T19:04:32.565Z,9.14
2023-01-13T19:07:15.379Z,8.83
2023-01-13T19:10:00.114Z,8.77
2023-01-13T19:12:46.430Z,8.68
2023-01-13T19:15:26.050Z,8.72
2023-01-13T19:18:01.566Z,8.95
2023-01-13T19:20:39.213Z,8.96
2023-01-13T19:23:18.802Z,9.11
2023-01-13T19:25:47.786Z,9.37
2023-01-13T19:28:29.119Z,9.17
2023-01-13T19:31:14.734Z,9.04
2023-01-13T19:33:51.613Z,8.93
2023-01-13T19:36:36.660Z,8.81
2023-01-13T19:39:15.092Z,8.64
2023-01-13T19:42:09.331Z,8.45
2023-01-13T19:45:00.216Z,8.55
2023-01-13T19:47:45.906Z,8.65
2023-01-13T19:50:15.932Z,8.51
2023-01-13T19:52:51.259Z,8.52
2023-01-13T19:55:22.508Z,8.47
2023-01-13T19:58:02.951Z,8.43
2023-01-13T20:00:42.107Z,8.56
2023-01-13T20:03:22.501Z,8.43
2023-01-13T20:06:03.331Z,8.41
2023-01-13T20:08:36.839Z,8.36
2023-01-13T20:11:22.992Z,8.35
2023-01-13T20:13:52.214Z,8.26
2023-01-13T20:16:19.285Z,8.22
2023-01-13T20:19:01.567Z,8.36
2023-01-13T20:21:37.887Z,8.67
2023-01-13T20:24:13.104Z,8.94
2023-01-13T20:26:52.623Z,8.75
2023-01-13T20:29:31.632Z,8.97
2023-01-13T20:32:10.473Z,9.03
2023-01-13T20:34:40.581Z,9.01
2023-01-13T20:37:14.594Z,8.96
2023-01-13T20:39:51.203Z,8.59
2023-01-13T20:42:30.918Z,8.45
2023-01-13T20:45:10.286Z,8.35
2023-01-13T20:47:42.418Z,8.38
2023-01-13T20:50:11.932Z,8.28
2023-01-13T20:52:50.093Z,8.32
2023-01-13T20:55:26.899Z,8.44
2023-01-13T20:58:09.234Z,8.70
2023-01-13T21:00:45.111Z,8.89
2023-01-13T21:03:25.436Z,8.94
2023-01-13T21:05:57.110Z,8.97
2023-01-13T21:08:24.704Z,8.99
2023-01-13T21:11:14.068Z,9.24
2023-01-13T21:14:08.014Z,9.29
2023-01-13T21:16:44.795Z,9.08
2023-01-13T21:19:24.118Z,8.75
2023-01-13T21:22:04.745Z,8.63
2023-01-13T21:24:45.115Z,8.59
2023-01-13T21:27:25.042Z,8.45
2023-01-13T21:29:53.169Z,8.34
2023-01-13T21:32:36.467Z,8.45
2023-01-13T21:35:07.297Z,8.33
2023-01-13T21:37:43.355Z,8.15
2023-01-13T21:40:17.860Z,8.17
2023-01-13T21:43:08.336Z,8.26
2023-01-13T21:46:04.734Z,8.93
2023-01-13T21:48:43.163Z,8.73
2023-01-13T21:51:20.915Z,8.42
2023-01-13T21:53:54.771Z,8.32
2023-01-13T21:56:33.492Z,8.12
2023-01-13T21:59:08.034Z,7.84
2023-01-13T22:02:23.022Z,7.83
2023-01-13T22:04:46.249Z,7.80
2023-01-13T22:07:27.260Z,7.89
2023-01-13T22:10:01.162Z,8.00
2023-01-13T22:12:29.724Z,7.95
2023-01-13T22:15:04.376Z,7.65
2023-01-13T22:17:37.539Z,7.56
2023-01-13T22:20:22.629Z,7.42
2023-01-13T22:22:52.366Z,7.36
2023-01-13T22:25:29.837Z,8.08
2023-01-13T22:28:10.641Z,8.29
2023-01-13T22:30:39.844Z,8.18
2023-01-13T22:33:06.940Z,8.78
2023-01-13T22:35:34.708Z,8.75
2023-01-13T22:38:04.465Z,8.60
2023-01-13T22:40:31.661Z,8.18
2023-01-13T22:43:01.707Z,8.00
2023-01-13T22:45:28.626Z,7.66
2023-01-13T22:48:03.353Z,7.38
2023-01-13T22:50:39.838Z,7.19
2023-01-13T22:53:11.872Z,7.15
2023-01-13T22:55:38.855Z,7.01
2023-01-13T22:58:21.135Z,7.15
2023-01-13T23:00:50.285Z,8.10
2023-01-13T23:03:23.934Z,9.16
2023-01-13T23:06:05.548Z,8.29
2023-01-13T23:08:43.233Z,7.77
2023-01-13T23:11:12.779Z,7.42
2023-01-13T23:13:42.959Z,8.51
2023-01-13T23:16:20.395Z,8.78
2023-01-13T23:18:49.226Z,8.15
2023-01-13T23:21:40.223Z,7.65
2023-01-13T23:24:22.252Z,7.26
2023-01-13T23:26:56.010Z,6.88
2023-01-13T23:29:39.444Z,6.63
2023-01-13T23:32:23.162Z,6.69
2023-01-13T23:41:14.084Z,7.26
2023-01-13T23:44:07.034Z,7.40
2023-01-13T23:46:53.495Z,7.23
2023-01-13T23:49:31.518Z,6.90
2023-01-13T23:52:11.876Z,6.74
2023-01-13T23:54:43.353Z,6.52
2023-01-13T23:57:15.166Z,6.53
2023-01-13T23:59:48.192Z,6.44
